createdAt,value
2023-02-11T00:02:03.682Z,22.73
2023-02-11T00:12:05.787Z,30.50
2023-02-11T00:22:08.213Z,23.92
2023-02-11T00:32:10.827Z,24.90
2023-02-11T00:42:14.705Z,28.05
2023-02-11T00:52:16.500Z,23.45
2023-02-11T01:02:18.340Z,31.20
2023-02-11T01:12:20.300Z,20.85
2023-02-11T01:22:22.314Z,26.58
2023-02-11T01:43:38.623Z,21.70
2023-02-11T01:53:44.449Z,24.52
2023-02-11T02:03:50.653Z,23.98
2023-02-11T02:13:52.875Z,20.23
2023-02-11T02:46:57.760Z,25.05
2023-02-11T02:57:44.990Z,25.98
2023-02-11T03:07:57.574Z,21.33
2023-02-11T03:18:01.941Z,21.88
2023-02-11T03:28:23.493Z,24.27
2023-02-11T03:38:35.691Z,20.80
2023-02-11T03:48:43.725Z,18.17
2023-02-11T03:58:46.179Z,13.80
2023-02-11T04:08:48.116Z,21.95
2023-02-11T04:18:50.070Z,19.25
2023-02-11T04:28:51.973Z,18.77
2023-02-11T04:38:53.813Z,22.25
2023-02-11T04:48:57.364Z,19.55
2023-02-11T04:58:59.520Z,15.70
2023-02-11T05:09:01.369Z,14.20
2023-02-11T05:19:03.298Z,16.15
2023-02-11T05:29:05.203Z,16.63
2023-02-11T05:39:25.388Z,14.00
2023-02-11T05:49:27.282Z,15.15
2023-02-11T05:59:30.623Z,22.33
2023-02-11T06:09:37.936Z,14.48
2023-02-11T06:19:39.936Z,20.27
2023-02-11T06:29:43.524Z,19.48
2023-02-11T06:39:45.533Z,20.95
2023-02-11T06:49:47.512Z,23.77
2023-02-11T06:59:49.336Z,21.23
2023-02-11T07:09:51.267Z,19.55
2023-02-11T07:19:53.032Z,25.85
2023-02-11T07:29:54.827Z,21.23
2023-02-11T07:39:56.732Z,22.80
2023-02-11T07:49:58.675Z,19.35
2023-02-11T08:00:00.521Z,20.50
2023-02-11T08:10:02.755Z,21.92
2023-02-11T08:20:05.935Z,20.98
2023-02-11T08:30:19.709Z,22.90
2023-02-11T08:40:22.002Z,21.63
2023-02-11T08:50:23.958Z,25.58
2023-02-11T09:00:26.013Z,24.92
2023-02-11T09:10:30.883Z,19.27
2023-02-11T09:20:32.890Z,26.75
2023-02-11T09:30:38.296Z,22.20
2023-02-11T09:40:46.408Z,21.92
2023-02-11T09:50:59.118Z,25.17
2023-02-11T10:01:16.128Z,23.02
2023-02-11T10:11:41.149Z,21.10
2023-02-11T10:22:08.993Z,22.45
2023-02-11T10:32:46.946Z,26.15
2023-02-11T10:42:53.701Z,19.40
2023-02-11T10:53:19.711Z,21.30
2023-02-11T11:03:24.548Z,21.80
2023-02-11T11:13:30.906Z,28.58
2023-02-11T11:23:36.550Z,26.33
2023-02-11T11:33:42.770Z,26.67
2023-02-11T11:44:14.528Z,20.15
2023-02-11T11:54:18.246Z,20.52
2023-02-11T12:04:38.792Z,21.73
2023-02-11T12:14:57.549Z,23.80
2023-02-11T12:25:37.119Z,24.20
2023-02-11T12:35:48.128Z,20.10
2023-02-11T12:45:49.891Z,23.40
2023-02-11T12:55:57.498Z,21.45
2023-02-11T13:06:05.248Z,20.95
2023-02-11T13:16:33.947Z,26.38
2023-02-11T13:26:57.003Z,17.88
2023-02-11T13:36:58.842Z,28.40
2023-02-11T13:47:03.745Z,26.33
2023-02-11T13:57:20.911Z,25.08
2023-02-11T14:07:30.170Z,29.48
2023-02-11T14:17:34.229Z,24.07
2023-02-11T14:28:23.324Z,19.92
2023-02-11T14:38:34.498Z,24.90
2023-02-11T14:48:43.565Z,23.10
2023-02-11T14:58:50.924Z,21.83
2023-02-11T15:08:56.797Z,24.48
2023-02-11T15:19:03.782Z,22.95
2023-02-11T15:29:18.418Z,22.08
2023-02-11T15:39:37.864Z,25.10
2023-02-11T15:49:44.977Z,23.10
2023-02-11T15:59:53.322Z,25.75
2023-02-11T16:09:58.477Z,34.80
2023-02-11T16:20:00.426Z,35.85
2023-02-11T16:30:03.068Z,37.78
2023-02-11T16:40:05.594Z,30.88
2023-02-11T16:50:19.075Z,36.63
2023-02-11T17:00:21.520Z,32.28
2023-02-11T17:10:23.830Z,38.65
2023-02-11T17:20:26.070Z,40.88
2023-02-11T17:30:29.010Z,38.08
2023-02-11T17:40:30.936Z,36.92
2023-02-11T17:50:36.122Z,41.47
2023-02-11T18:00:37.994Z,40.13
2023-02-11T18:10:42.079Z,35.95
2023-02-11T18:20:43.935Z,36.03
2023-02-11T18:30:45.851Z,42.92
2023-02-11T18:40:49.792Z,37.42
2023-02-11T19:01:53.786Z,38.73
2023-02-11T19:11:58.848Z,39.60
2023-02-11T20:08:08.920Z,20.77
2023-02-11T20:29:44.956Z,26.83
2023-02-11T20:39:46.874Z,20.45
2023-02-11T20:49:48.796Z,17.88
2023-02-11T20:59:50.809Z,15.93
2023-02-11T21:09:52.739Z,13.38
2023-02-11T21:19:54.576Z,18.58
2023-02-11T21:29:56.357Z,15.95
2023-02-11T21:39:58.197Z,13.77
2023-02-11T21:49:59.962Z,13.30
2023-02-11T22:00:02.301Z,26.40
2023-02-11T22:10:08.004Z,21.95
2023-02-11T22:20:10.473Z,15.30
2023-02-11T22:30:12.823Z,16.65
2023-02-11T22:40:14.767Z,14.43
2023-02-11T22:50:16.796Z,13.25
2023-02-11T23:00:20.871Z,14.13
2023-02-11T23:10:23.272Z,13.65
2023-02-11T23:20:25.701Z,18.42
2023-02-11T23:30:28.671Z,13.52
2023-02-11T23:40:30.574Z,14.48
2023-02-11T23:50:32.354Z,17.55
